Time;durP1;ratioP1;P1;durP2;ratioP2;P2;SDS_P1;SDS_P2;PMS_P1;PMS_P2;Temp;Humidity;BMP_temperature;BMP_pressure;BME280_temperature;BME280_humidity;BME280_pressure;Samples;Min_cycle;Max_cycle;Signal;HPM_P1;HPM_P2
2023/11/18 00:01:34;;;;;;;20.05;9.33;;;;;;;3.12;90.22;100529.61;1814534;79;21114;-73
2023/11/18 00:04:03;;;;;;;17.87;8.60;;;;;;;3.13;90.30;100534.88;1815060;79;21535;-71
2023/11/18 00:06:32;;;;;;;18.27;9.40;;;;;;;3.14;90.18;100528.95;1745485;82;21143;-72
2023/11/18 00:09:01;;;;;;;16.25;8.60;;;;;;;3.08;90.04;100537.17;1814750;79;21115;-72
2023/11/18 00:11:30;;;;;;;15.68;8.23;;;;;;;3.06;90.22;100543.73;1745616;82;21609;-73
2023/11/18 00:13:59;;;;;;;15.72;8.45;;;;;;;3.06;90.24;100532.40;1814776;79;21569;-73
2023/11/18 00:16:29;;;;;;;16.27;8.48;;;;;;;3.05;90.12;100542.02;1814788;79;21589;-73
2023/11/18 00:18:58;;;;;;;17.15;9.15;;;;;;;3.02;90.13;100540.95;1814916;79;21558;-73
2023/11/18 00:21:30;;;;;;;15.03;8.10;;;;;;;3.00;90.14;100541.60;1737807;82;21159;-73
2023/11/18 00:23:59;;;;;;;17.50;9.35;;;;;;;3.01;90.27;100543.31;1784520;79;21115;-73
2023/11/18 00:26:29;;;;;;;15.98;8.25;;;;;;;3.01;90.26;100546.02;1737770;82;21150;-72
2023/11/18 00:29:00;;;;;;;15.45;8.18;;;;;;;3.00;90.26;100551.93;1806529;79;21126;-72
2023/11/18 00:31:29;;;;;;;14.90;8.18;;;;;;;2.99;90.25;100544.81;1806229;79;21135;-72
2023/11/18 00:33:58;;;;;;;17.10;8.58;;;;;;;2.98;90.25;100550.37;1806417;79;21190;-72
2023/11/18 00:36:28;;;;;;;16.97;8.30;;;;;;;2.98;90.34;100557.13;1737531;82;21100;-72
2023/11/18 00:38:57;;;;;;;16.97;8.35;;;;;;;2.96;90.28;100557.28;1806345;79;21538;-72
2023/11/18 00:41:26;;;;;;;14.63;7.78;;;;;;;2.95;90.37;100550.66;1806292;79;21644;-73
2023/11/18 00:43:56;;;;;;;16.23;8.13;;;;;;;2.96;90.42;100542.89;1737624;82;21186;-73
2023/11/18 00:46:26;;;;;;;14.93;8.08;;;;;;;2.93;90.29;100541.33;1806404;79;21523;-72
2023/11/18 00:48:57;;;;;;;15.28;8.38;;;;;;;2.94;90.36;100538.13;1806459;79;21147;-71
2023/11/18 00:51:27;;;;;;;14.98;7.75;;;;;;;2.95;90.43;100541.19;1737690;82;21195;-74
2023/11/18 00:53:56;;;;;;;14.58;8.10;;;;;;;2.97;90.47;100542.75;1806449;79;21104;-74
2023/11/18 00:56:25;;;;;;;14.13;7.90;;;;;;;2.97;90.48;100533.78;1806158;79;21111;-72
2023/11/18 00:58:53;;;;;;;16.65;8.68;;;;;;;2.96;90.47;100537.48;1806287;79;21175;-73
2023/11/18 01:01:22;;;;;;;18.40;7.62;;;;;;;2.99;90.43;100534.48;1806211;79;21606;-73
2023/11/18 01:03:51;;;;;;;15.68;7.97;;;;;;;2.96;90.18;100533.42;1737651;82;21168;-72
2023/11/18 01:06:21;;;;;;;13.65;8.00;;;;;;;2.95;90.30;100536.63;1806114;79;21150;-73
2023/11/18 01:08:51;;;;;;;16.45;8.65;;;;;;;2.94;90.25;100530.01;1737649;82;21123;-72
2023/11/18 01:11:20;;;;;;;14.38;7.75;;;;;;;2.90;90.26;100528.09;1806068;79;21095;-73
2023/11/18 01:13:49;;;;;;;14.35;7.37;;;;;;;2.87;90.21;100528.38;1806400;79;21585;-72
2023/11/18 01:16:19;;;;;;;13.98;7.97;;;;;;;2.84;90.25;100528.67;1737579;82;21700;-72
2023/11/18 01:18:48;;;;;;;14.40;8.05;;;;;;;2.83;90.37;100525.61;1806281;79;21115;-73
2023/11/18 01:21:17;;;;;;;15.15;7.95;;;;;;;2.85;90.44;100526.31;1806204;79;21115;-73
2023/11/18 01:23:46;;;;;;;14.80;8.25;;;;;;;2.85;90.49;100525.83;1806079;79;21075;-73
2023/11/18 01:26:15;;;;;;;19.10;9.08;;;;;;;2.88;90.41;100522.47;1806174;79;21689;-73
2023/11/18 01:28:46;;;;;;;15.20;7.65;;;;;;;2.86;90.36;100529.38;1737693;82;21187;-74
2023/11/18 01:31:18;;;;;;;16.87;8.35;;;;;;;2.83;90.36;100526.47;1806208;79;21143;-74
2023/11/18 01:33:50;;;;;;;14.90;8.48;;;;;;;2.86;90.53;100523.47;1737794;82;21123;-73
2023/11/18 01:36:19;;;;;;;14.98;8.10;;;;;;;2.93;90.58;100533.21;1806290;79;21087;-73
2023/11/18 01:38:48;;;;;;;14.58;7.95;;;;;;;2.96;90.39;100528.01;1737570;82;21120;-73
2023/11/18 01:41:17;;;;;;;17.82;8.83;;;;;;;2.94;90.31;100532.71;1806275;79;21111;-73
2023/11/18 01:43:47;;;;;;;16.82;8.90;;;;;;;2.95;90.37;100526.30;1737711;82;21195;-72
2023/11/18 01:46:16;;;;;;;15.10;8.00;;;;;;;2.99;90.28;100530.42;1806276;79;21115;-71
2023/11/18 01:48:46;;;;;;;20.17;8.58;;;;;;;2.96;90.26;100517.19;1737522;82;21170;-74
2023/11/18 01:51:14;;;;;;;16.93;9.13;;;;;;;2.93;90.29;100530.51;1806055;79;21147;-72
2023/11/18 01:53:43;;;;;;;18.57;9.03;;;;;;;2.93;90.33;100522.89;1806161;79;21843;-73
2023/11/18 01:56:12;;;;;;;17.73;8.78;;;;;;;2.94;90.30;100530.01;1806254;79;21111;-72
2023/11/18 01:58:41;;;;;;;19.32;9.13;;;;;;;2.95;90.16;100527.66;1806244;79;21131;-72
2023/11/18 02:01:10;;;;;;;17.23;8.88;;;;;;;2.95;90.22;100530.36;1737591;82;21142;-73
2023/11/18 02:03:42;;;;;;;17.57;9.13;;;;;;;2.97;90.19;100533.28;1806200;79;21142;-73
2023/11/18 02:06:10;;;;;;;15.38;8.25;;;;;;;2.98;90.09;100546.30;1806265;79;21159;-72
2023/11/18 02:08:41;;;;;;;18.23;9.43;;;;;;;2.98;89.98;100539.55;1806218;79;21134;-73
2023/11/18 02:11:31;;;;;;;23.05;9.30;;;;;;;2.97;89.96;100541.89;1806241;79;21655;-73
2023/11/18 02:14:04;;;;;;;16.93;8.98;;;;;;;2.98;89.87;100536.84;1806453;79;21158;-74
2023/11/18 02:16:33;;;;;;;19.05;9.28;;;;;;;2.95;89.87;100543.89;1806459;79;21163;-72
2023/11/18 02:19:02;;;;;;;15.53;8.23;;;;;;;2.93;89.97;100544.03;1737871;82;21131;-73
2023/11/18 02:21:33;;;;;;;17.27;8.65;;;;;;;2.94;90.01;100542.19;1800745;79;21119;-74
2023/11/18 02:24:02;;;;;;;18.07;8.40;;;;;;;2.92;89.81;100546.89;1718630;83;21116;-74
2023/11/18 02:26:31;;;;;;;15.98;8.70;;;;;;;2.85;89.95;100543.41;1798829;79;21116;-74
2023/11/18 02:28:59;;;;;;;20.08;9.70;;;;;;;2.85;90.06;100550.67;1799083;80;21135;-73
2023/11/18 02:31:33;;;;;;;17.20;8.60;;;;;;;2.86;90.21;100543.77;1718427;83;21147;-74
2023/11/18 02:34:10;;;;;;;13.48;7.37;;;;;;;2.85;90.19;100545.27;1798998;80;21107;-72
2023/11/18 02:36:48;;;;;;;15.83;7.65;;;;;;;2.80;90.45;100547.05;1799142;80;21546;-73
2023/11/18 02:39:22;;;;;;;16.00;8.30;;;;;;;2.79;90.65;100541.78;1798895;80;21131;-72
2023/11/18 02:41:52;;;;;;;14.33;7.78;;;;;;;2.76;90.76;100544.27;1718399;83;21154;-73
2023/11/18 02:44:23;;;;;;;16.57;8.50;;;;;;;2.73;91.08;100543.21;1798918;79;21143;-74
2023/11/18 02:46:52;;;;;;;17.75;8.85;;;;;;;2.71;91.28;100543.86;1799116;80;21151;-73
2023/11/18 02:49:21;;;;;;;14.93;8.58;;;;;;;2.70;91.55;100546.20;1798999;80;21119;-72
2023/11/18 02:51:50;;;;;;;18.25;9.45;;;;;;;2.68;91.66;100544.14;1798975;79;21107;-73
2023/11/18 02:54:19;;;;;;;14.20;8.30;;;;;;;2.69;91.82;100541.79;1798898;80;21602;-71
2023/11/18 02:56:48;;;;;;;14.78;7.30;;;;;;;2.71;91.99;100547.91;1799130;80;21605;-74
2023/11/18 02:59:17;;;;;;;19.75;9.55;;;;;;;2.73;92.14;100543.71;1799106;79;21159;-73
2023/11/18 03:01:46;;;;;;;17.40;9.13;;;;;;;2.72;92.12;100541.50;1799003;79;21147;-73
2023/11/18 03:04:14;;;;;;;18.00;8.45;;;;;;;2.73;92.25;100543.71;1718685;83;21167;-72
2023/11/18 03:06:43;;;;;;;17.55;8.60;;;;;;;2.75;92.27;100534.45;1799097;80;21174;-72
2023/11/18 03:09:13;;;;;;;16.90;8.65;;;;;;;2.75;92.37;100541.22;1798926;80;21151;-72
2023/11/18 03:11:44;;;;;;;17.40;8.58;;;;;;;2.77;92.44;100536.52;1798926;80;21127;-73
2023/11/18 03:14:13;;;;;;;17.90;9.15;;;;;;;2.83;92.50;100542.70;1799158;80;21115;-72
2023/11/18 03:16:42;;;;;;;16.17;8.10;;;;;;;2.88;92.52;100548.17;1770586;80;21575;-73
2023/11/18 03:19:11;;;;;;;18.50;8.00;;;;;;;2.93;92.51;100548.09;1718650;83;21175;-73
2023/11/18 03:21:40;;;;;;;16.82;8.33;;;;;;;2.96;92.40;100549.66;1803710;79;21108;-72
2023/11/18 03:24:09;;;;;;;14.40;8.30;;;;;;;2.96;92.35;100542.89;1806227;79;21088;-74
2023/11/18 03:26:38;;;;;;;16.20;9.20;;;;;;;2.97;92.37;100545.45;1806139;79;21163;-73
2023/11/18 03:29:07;;;;;;;16.17;9.00;;;;;;;2.98;92.29;100544.45;1806412;79;21135;-72
2023/11/18 03:31:35;;;;;;;17.55;9.40;;;;;;;2.97;92.21;100549.52;1806448;79;21131;-72
2023/11/18 03:34:04;;;;;;;21.02;9.53;;;;;;;2.96;92.15;100544.25;1737753;82;21131;-72
2023/11/18 03:36:33;;;;;;;20.17;10.23;;;;;;;2.93;92.05;100544.53;1806400;79;21146;-73
2023/11/18 03:39:01;;;;;;;19.65;9.75;;;;;;;2.91;92.06;100537.06;1806452;79;21099;-72
2023/11/18 03:41:31;;;;;;;21.27;9.40;;;;;;;2.90;92.09;100554.30;1737674;82;21166;-73
2023/11/18 03:44:00;;;;;;;21.27;10.43;;;;;;;2.90;92.04;100547.53;1806304;79;21119;-74
2023/11/18 03:46:34;;;;;;;23.62;11.03;;;;;;;2.88;92.11;100546.83;1806241;79;21570;-73
2023/11/18 03:48:59;;;;;;;23.40;10.78;;;;;;;2.92;92.19;100541.48;1806058;79;21523;-73
2023/11/18 03:51:28;;;;;;;22.90;10.53;;;;;;;2.95;92.30;100543.89;1737845;82;21531;-73
2023/11/18 03:53:57;;;;;;;24.70;10.53;;;;;;;2.96;92.28;100545.10;1806302;79;21182;-72
2023/11/18 03:56:26;;;;;;;25.60;10.78;;;;;;;2.94;92.47;100545.75;1737539;82;21177;-73
2023/11/18 03:58:55;;;;;;;26.25;9.98;;;;;;;3.00;92.51;100551.08;1806486;79;21146;-72
2023/11/18 04:01:28;;;;;;;24.77;9.60;;;;;;;2.97;92.25;100550.02;1806135;79;21524;-73
2023/11/18 04:03:57;;;;;;;22.60;9.43;;;;;;;2.96;92.23;100546.45;1806288;79;21107;-72
2023/11/18 04:06:26;;;;;;;22.82;11.03;;;;;;;2.97;92.21;100547.30;1737965;82;21158;-73
2023/11/18 04:08:54;;;;;;;30.48;10.40;;;;;;;2.99;92.06;100549.37;1806427;79;21178;-72
2023/11/18 04:11:23;;;;;;;21.50;9.65;;;;;;;2.98;91.99;100553.08;1806329;79;21405;-73
2023/11/18 04:13:52;;;;;;;26.48;11.38;;;;;;;2.98;91.91;100554.42;1737867;82;21147;-72
2023/11/18 04:16:22;;;;;;;23.38;9.40;;;;;;;2.94;91.78;100559.77;1806449;79;21184;-73
2023/11/18 04:18:50;;;;;;;21.97;9.90;;;;;;;2.94;91.76;100555.72;1737673;82;21150;-73
2023/11/18 04:21:19;;;;;;;25.75;10.88;;;;;;;2.92;91.64;100562.63;1806167;79;21659;-73
2023/11/18 04:23:48;;;;;;;27.25;10.43;;;;;;;2.94;91.59;100561.98;1806338;79;21717;-74
2023/11/18 04:26:17;;;;;;;22.98;9.65;;;;;;;2.95;91.56;100563.69;1806194;79;21530;-74
2023/11/18 04:28:46;;;;;;;26.27;9.43;;;;;;;2.94;91.32;100575.52;1737688;82;21143;-73
2023/11/18 04:31:15;;;;;;;28.23;10.13;;;;;;;2.93;91.30;100574.30;1806141;79;21159;-73
2023/11/18 04:33:44;;;;;;;27.13;9.75;;;;;;;2.93;91.34;100572.95;1737836;82;21151;-72
2023/11/18 04:36:13;;;;;;;23.12;10.10;;;;;;;2.92;91.31;100571.25;1806232;79;21153;-72
2023/11/18 04:38:45;;;;;;;22.75;9.13;;;;;;;2.90;91.22;100577.30;1737807;82;21176;-73
2023/11/18 04:41:14;;;;;;;22.70;9.53;;;;;;;2.90;91.24;100573.23;1806463;79;21092;-72
2023/11/18 04:43:43;;;;;;;21.45;9.13;;;;;;;2.88;91.17;100582.86;1737812;82;21189;-73
2023/11/18 04:46:14;;;;;;;21.93;9.63;;;;;;;2.91;91.29;100579.01;1806421;79;21155;-73
2023/11/18 04:48:43;;;;;;;21.75;9.83;;;;;;;2.93;91.21;100567.04;1806245;79;21123;-73
2023/11/18 04:51:12;;;;;;;18.95;9.55;;;;;;;2.93;91.19;100573.81;1737558;82;21202;-74
2023/11/18 04:53:41;;;;;;;22.30;9.48;;;;;;;2.93;91.11;100583.28;1806253;79;21163;-72
2023/11/18 04:56:10;;;;;;;21.68;9.55;;;;;;;2.92;91.10;100584.28;1737571;82;21656;-72
2023/11/18 04:58:42;;;;;;;22.05;10.13;;;;;;;2.91;90.89;100587.98;1806511;79;21091;-73
2023/11/18 05:01:12;;;;;;;21.15;9.20;;;;;;;2.88;90.89;100598.23;1806438;79;21182;-73
2023/11/18 05:03:41;;;;;;;22.52;9.60;;;;;;;2.86;90.87;100593.83;1737656;82;21664;-73
2023/11/18 05:06:11;;;;;;;22.67;10.00;;;;;;;2.79;90.58;100604.87;1806319;79;21103;-73
2023/11/18 05:08:39;;;;;;;22.30;9.18;;;;;;;2.75;90.54;100599.88;1806282;79;21163;-74
2023/11/18 05:11:09;;;;;;;21.35;9.23;;;;;;;2.73;90.60;100602.73;1806371;79;21174;-73
2023/11/18 05:13:39;;;;;;;21.07;9.05;;;;;;;2.73;90.70;100593.77;1737680;82;21115;-72
2023/11/18 05:16:10;;;;;;;20.40;8.85;;;;;;;2.71;90.47;100606.08;1806395;79;21628;-73
2023/11/18 05:18:40;;;;;;;25.37;9.50;;;;;;;2.71;90.62;100602.52;1806161;79;21581;-72
2023/11/18 05:21:11;;;;;;;17.48;8.80;;;;;;;2.72;90.50;100610.99;1739042;82;21139;-73
2023/11/18 05:23:40;;;;;;;13.78;8.43;;;;;;;2.71;90.47;100625.02;1814767;79;21158;-72
2023/11/18 05:26:09;;;;;;;14.60;7.58;;;;;;;2.69;89.80;100621.59;1814910;79;21109;-72
2023/11/18 05:28:38;;;;;;;17.55;8.53;;;;;;;2.60;89.63;100622.91;1745610;82;21578;-72
2023/11/18 05:31:08;;;;;;;13.95;8.23;;;;;;;2.54;89.57;100621.62;1814748;79;21170;-73
2023/11/18 05:33:37;;;;;;;16.48;8.90;;;;;;;2.52;89.66;100623.12;1745775;82;21091;-74
2023/11/18 05:36:07;;;;;;;16.25;8.75;;;;;;;2.50;89.55;100629.66;1814843;79;21159;-73
2023/11/18 05:38:37;;;;;;;16.32;8.15;;;;;;;2.47;89.44;100631.30;1814999;79;21138;-71
2023/11/18 05:41:16;;;;;;;15.63;8.33;;;;;;;2.45;89.41;100631.94;1815130;79;21146;-73
2023/11/18 05:43:39;;;;;;;14.70;8.35;;;;;;;2.42;89.33;100640.33;1813063;79;21581;-74
2023/11/18 05:46:53;;;;;;;13.72;8.18;;;;;;;2.42;89.38;100641.67;1814934;79;21154;-74
2023/11/18 05:48:38;;;;;;;14.75;8.58;;;;;;;2.39;89.29;100639.25;1786187;79;21201;-72
2023/11/18 05:51:08;;;;;;;16.30;8.63;;;;;;;2.37;89.27;100653.41;1814307;79;21577;-74
2023/11/18 05:53:48;;;;;;;16.62;8.40;;;;;;;2.34;89.14;100655.04;1814862;79;21114;-71
2023/11/18 05:56:14;;;;;;;14.53;8.38;;;;;;;2.28;89.13;100664.56;1814695;79;21122;-72
2023/11/18 05:58:45;;;;;;;18.05;8.80;;;;;;;2.26;89.19;100655.73;1783602;79;21117;-72
2023/11/18 06:01:16;;;;;;;16.40;8.78;;;;;;;2.27;89.27;100662.84;1745766;82;21162;-73
2023/11/18 06:03:45;;;;;;;16.82;8.88;;;;;;;2.29;89.30;100659.51;1814945;79;21111;-74
2023/11/18 06:06:16;;;;;;;13.78;7.90;;;;;;;2.32;89.42;100658.38;1814995;79;21106;-73
2023/11/18 06:08:47;;;;;;;16.20;8.93;;;;;;;2.34;89.39;100674.82;1814502;79;21166;-75
2023/11/18 06:11:17;;;;;;;15.63;8.95;;;;;;;2.37;89.38;100673.69;1745528;82;21159;-74
2023/11/18 06:13:49;;;;;;;17.40;9.03;;;;;;;2.41;89.41;100677.83;1814932;79;21843;-74
2023/11/18 06:16:21;;;;;;;17.48;9.38;;;;;;;2.48;89.45;100679.84;1745710;82;21566;-75
2023/11/18 06:18:53;;;;;;;16.27;8.73;;;;;;;2.50;89.15;100683.26;1784571;79;21110;-74
2023/11/18 06:21:34;;;;;;;18.15;9.60;;;;;;;2.51;89.11;100682.76;1745620;82;21163;-72
2023/11/18 06:24:00;;;;;;;17.50;9.00;;;;;;;2.53;89.08;100683.48;1814608;79;21114;-74
2023/11/18 06:26:29;;;;;;;16.27;8.85;;;;;;;2.52;88.85;100682.62;1814932;79;21142;-74
2023/11/18 06:28:59;;;;;;;16.45;8.90;;;;;;;2.49;88.61;100687.45;1814937;79;21114;-74
2023/11/18 06:31:30;;;;;;;15.35;8.33;;;;;;;2.46;88.48;100694.48;1814874;79;21566;-73
2023/11/18 06:33:59;;;;;;;17.65;9.30;;;;;;;2.46;88.42;100699.90;1745825;82;21130;-75
2023/11/18 06:36:29;;;;;;;13.80;8.15;;;;;;;2.45;88.33;100702.25;1814908;79;21115;-72
2023/11/18 06:38:58;;;;;;;13.25;7.85;;;;;;;2.40;87.54;100695.05;1814914;79;21115;-73
2023/11/18 06:41:37;;;;;;;15.98;7.78;;;;;;;2.37;87.48;100708.84;1814928;79;21157;-73
2023/11/18 06:44:17;;;;;;;13.38;7.80;;;;;;;2.30;87.12;100703.62;1814728;79;21390;-74
2023/11/18 06:46:42;;;;;;;14.75;8.48;;;;;;;2.24;87.07;100698.27;1814434;79;21114;-73
2023/11/18 06:49:15;;;;;;;14.95;8.38;;;;;;;2.19;87.01;100706.79;1745683;82;21115;-74
2023/11/18 06:51:42;;;;;;;12.75;7.60;;;;;;;2.16;87.00;100709.77;1814722;79;21138;-73
2023/11/18 06:54:11;;;;;;;13.32;8.35;;;;;;;2.12;87.02;100708.33;1814829;79;21432;-75
2023/11/18 06:56:46;;;;;;;15.53;8.38;;;;;;;2.10;87.09;100708.95;1814970;79;21086;-73
2023/11/18 06:59:13;;;;;;;13.62;8.33;;;;;;;2.14;87.40;100718.50;1814816;79;21107;-72
2023/11/18 07:01:44;;;;;;;12.82;8.10;;;;;;;2.21;87.49;100719.67;1745598;82;21644;-73
2023/11/18 07:04:14;;;;;;;14.05;8.28;;;;;;;2.25;87.54;100717.55;1815034;79;21684;-74
2023/11/18 07:06:44;;;;;;;16.97;9.23;;;;;;;2.31;87.38;100716.14;1745657;82;21143;-74
2023/11/18 07:09:17;;;;;;;14.23;8.65;;;;;;;2.35;87.32;100710.33;1814669;79;21111;-74
2023/11/18 07:11:46;;;;;;;14.05;8.38;;;;;;;2.39;87.31;100715.82;1814717;79;21138;-73
2023/11/18 07:14:17;;;;;;;13.13;8.05;;;;;;;2.41;86.86;100711.63;1814890;79;21158;-74
2023/11/18 07:16:47;;;;;;;14.85;8.43;;;;;;;2.38;86.69;100711.91;1814790;79;21155;-74
2023/11/18 07:19:23;;;;;;;15.18;8.83;;;;;;;2.38;86.82;100707.84;1814732;79;21174;-73
2023/11/18 07:21:52;;;;;;;15.20;8.60;;;;;;;2.39;86.71;100710.91;1815037;79;21120;-75
2023/11/18 07:24:21;;;;;;;14.45;7.97;;;;;;;2.42;86.72;100709.28;1814886;79;21106;-74
2023/11/18 07:26:50;;;;;;;14.70;8.60;;;;;;;2.46;86.84;100703.95;1814821;79;21652;-73
2023/11/18 07:29:20;;;;;;;16.25;8.68;;;;;;;2.51;86.76;100713.36;1814825;79;21095;-74
2023/11/18 07:31:49;;;;;;;15.83;8.35;;;;;;;2.57;86.79;100709.25;1815073;79;21138;-73
2023/11/18 07:34:18;;;;;;;16.25;9.43;;;;;;;2.64;86.45;100702.33;1745641;82;21150;-75
2023/11/18 07:36:48;;;;;;;17.05;9.60;;;;;;;2.69;86.39;100710.88;1814828;79;21182;-74
2023/11/18 07:39:23;;;;;;;18.87;9.45;;;;;;;2.72;86.27;100709.24;1814803;79;21139;-73
2023/11/18 07:41:47;;;;;;;18.73;9.20;;;;;;;2.77;86.19;100715.09;1745001;82;21119;-73
2023/11/18 07:44:16;;;;;;;14.98;8.60;;;;;;;2.80;86.09;100708.05;1814887;79;21154;-72
2023/11/18 07:46:45;;;;;;;16.48;9.20;;;;;;;2.86;85.92;100716.95;1814763;79;21079;-73
2023/11/18 07:49:16;;;;;;;15.03;8.98;;;;;;;2.92;85.88;100721.45;1745499;82;21131;-73
2023/11/18 07:51:44;;;;;;;14.98;9.13;;;;;;;2.94;85.48;100727.57;1815017;79;21159;-76
2023/11/18 07:54:13;;;;;;;14.05;8.35;;;;;;;2.98;85.42;100723.59;1745607;82;21127;-73
2023/11/18 07:56:42;;;;;;;18.67;9.10;;;;;;;3.00;84.90;100717.03;1814726;79;21142;-73
2023/11/18 07:59:15;;;;;;;13.10;7.78;;;;;;;2.97;84.57;100723.23;1745606;82;21186;-72
2023/11/18 08:01:48;;;;;;;16.57;8.55;;;;;;;2.98;84.39;100727.65;1814679;79;21266;-74
2023/11/18 08:04:14;;;;;;;14.35;7.85;;;;;;;3.00;84.36;100729.72;1814409;79;21166;-74
2023/11/18 08:06:43;;;;;;;15.40;8.63;;;;;;;2.99;83.85;100727.51;1745545;82;21578;-73
2023/11/18 08:09:13;;;;;;;18.25;9.23;;;;;;;3.01;83.67;100729.58;1815084;79;21569;-74
2023/11/18 08:11:42;;;;;;;14.55;7.97;;;;;;;3.04;83.56;100727.08;1814790;79;21558;-74
2023/11/18 08:14:11;;;;;;;16.30;8.75;;;;;;;3.10;83.71;100731.44;1745909;82;21159;-74
2023/11/18 08:16:39;;;;;;;14.78;7.65;;;;;;;3.17;83.51;100738.48;1814920;79;21190;-74
2023/11/18 08:19:08;;;;;;;17.15;8.93;;;;;;;3.22;82.75;100744.33;1814927;79;21158;-73
2023/11/18 08:21:41;;;;;;;17.95;8.80;;;;;;;3.26;82.81;100745.80;1814716;79;21111;-73
2023/11/18 08:24:12;;;;;;;15.70;8.68;;;;;;;3.30;82.45;100751.28;1747837;82;21202;-76
2023/11/18 08:26:41;;;;;;;16.55;7.92;;;;;;;3.35;82.21;100750.35;1816776;79;21119;-74
2023/11/18 08:29:12;;;;;;;12.68;7.78;;;;;;;3.35;81.63;100750.35;1817088;79;21134;-74
2023/11/18 08:31:41;;;;;;;13.32;7.50;;;;;;;3.34;81.29;100750.49;1747709;82;21154;-75
2023/11/18 08:34:10;;;;;;;12.25;7.50;;;;;;;3.33;81.24;100755.06;1817049;79;21158;-75
2023/11/18 08:36:39;;;;;;;14.07;7.62;;;;;;;3.35;81.14;100750.85;1817153;79;21087;-73
2023/11/18 08:39:10;;;;;;;11.30;7.08;;;;;;;3.38;80.95;100758.19;1817068;79;21197;-74
2023/11/18 08:41:41;;;;;;;14.18;7.17;;;;;;;3.44;80.94;100762.18;1817129;79;21107;-73
2023/11/18 08:44:12;;;;;;;12.58;6.80;;;;;;;3.46;80.52;100769.17;1817175;79;21106;-74
2023/11/18 08:46:42;;;;;;;12.63;8.00;;;;;;;3.50;80.42;100767.03;1815025;79;21185;-73
2023/11/18 08:49:11;;;;;;;14.70;7.97;;;;;;;3.57;80.26;100765.95;1719180;82;21123;-73
2023/11/18 08:51:41;;;;;;;12.55;7.28;;;;;;;3.61;80.00;100769.59;1817177;79;21143;-74
2023/11/18 08:54:25;;;;;;;11.35;7.08;;;;;;;3.66;79.87;100761.88;1739775;82;21156;-76
2023/11/18 08:56:58;;;;;;;12.13;7.47;;;;;;;3.76;79.70;100764.08;1760907;80;21114;-76
2023/11/18 08:59:27;;;;;;;15.08;7.10;;;;;;;3.87;78.91;100762.20;1786411;80;21104;-74
2023/11/18 09:01:56;;;;;;;11.22;6.37;;;;;;;3.91;78.24;100760.44;1784662;80;21137;-72
2023/11/18 09:04:27;;;;;;;11.78;6.42;;;;;;;4.05;84.15;100765.40;1784859;80;21210;-71
2023/11/18 09:07:00;;;;;;;13.25;6.45;;;;;;;4.37;81.76;100760.08;1784584;80;21620;-73
2023/11/18 09:09:27;;;;;;;10.05;6.17;;;;;;;4.35;79.13;100772.44;1784747;79;21138;-72
2023/11/18 09:11:56;;;;;;;10.55;5.90;;;;;;;4.25;75.77;100762.63;1802088;79;21111;-71
2023/11/18 09:14:25;;;;;;;8.93;5.62;;;;;;;4.07;75.09;100760.69;1816937;79;21165;-71
2023/11/18 09:16:56;;;;;;;11.05;6.50;;;;;;;3.98;74.72;100760.21;1747182;82;21521;-71
2023/11/18 09:19:26;;;;;;;10.85;6.10;;;;;;;3.90;74.10;100752.42;1816685;79;21019;-72
2023/11/18 09:21:55;;;;;;;12.37;6.20;;;;;;;3.81;74.17;100747.38;1747315;82;21464;-71
2023/11/18 09:24:24;;;;;;;12.63;6.60;;;;;;;3.81;74.48;100730.61;1814542;79;21107;-70
2023/11/18 09:26:54;;;;;;;15.10;7.15;;;;;;;3.84;74.50;100738.95;1814608;79;21038;-73
2023/11/18 09:29:24;;;;;;;11.40;5.87;;;;;;;3.89;74.48;100743.44;1745214;82;21513;-72
2023/11/18 09:31:54;;;;;;;15.35;6.45;;;;;;;3.96;74.33;100739.67;1814363;79;21474;-72
2023/11/18 09:34:28;;;;;;;12.35;6.30;;;;;;;3.97;74.27;100738.16;1814490;79;21407;-72
2023/11/18 09:36:54;;;;;;;9.78;6.05;;;;;;;4.02;74.12;100735.02;1744951;82;21444;-71
2023/11/18 09:39:32;;;;;;;10.30;5.55;;;;;;;4.06;74.50;100726.44;1814403;79;21415;-71
2023/11/18 09:42:02;;;;;;;9.03;6.03;;;;;;;4.10;74.09;100728.35;1814647;79;21447;-71
2023/11/18 09:44:32;;;;;;;10.45;6.22;;;;;;;4.12;73.13;100726.34;1745389;82;21522;-72
2023/11/18 09:47:09;;;;;;;11.05;5.72;;;;;;;4.07;72.96;100707.81;1783701;79;21463;-71
2023/11/18 09:49:45;;;;;;;13.85;6.05;;;;;;;4.02;72.58;100716.04;1745253;82;21529;-71
2023/11/18 09:52:21;;;;;;;10.45;6.22;;;;;;;4.03;72.82;100717.24;1814635;79;21023;-71
2023/11/18 09:55:04;;;;;;;9.20;5.83;;;;;;;4.06;72.81;100711.53;1745408;82;21094;-72
2023/11/18 09:57:39;;;;;;;10.15;5.60;;;;;;;4.06;72.66;100707.95;1814333;79;21348;-71
2023/11/18 10:00:26;;;;;;;10.85;5.62;;;;;;;4.09;72.75;100704.95;1745366;82;21019;-72
2023/11/18 10:02:52;;;;;;;13.43;6.90;;;;;;;4.13;72.85;100702.30;1800727;79;21008;-72
2023/11/18 10:05:22;;;;;;;12.98;5.95;;;;;;;4.09;71.98;100691.39;1715552;83;21039;-73
2023/11/18 10:07:51;;;;;;;7.70;5.25;;;;;;;4.04;72.37;100699.12;1782380;80;21012;-72
2023/11/18 10:10:20;;;;;;;9.25;5.12;;;;;;;4.08;72.68;100694.61;1715642;83;21079;-73
2023/11/18 10:12:57;;;;;;;9.38;5.30;;;;;;;4.13;72.41;100690.95;1782397;80;21007;-73
2023/11/18 10:15:25;;;;;;;9.98;5.55;;;;;;;4.17;72.25;100682.52;1782428;80;21027;-71
2023/11/18 10:18:06;;;;;;;8.13;5.12;;;;;;;4.18;71.91;100684.22;1782324;80;21481;-71
2023/11/18 10:20:47;;;;;;;8.65;5.28;;;;;;;4.18;71.79;100698.63;1782144;80;21063;-71
2023/11/18 10:23:19;;;;;;;7.80;5.17;;;;;;;4.14;71.33;100692.66;1782524;80;21086;-71
2023/11/18 10:25:57;;;;;;;7.87;4.15;;;;;;;4.10;71.51;100693.10;1782348;80;21047;-73
2023/11/18 10:28:33;;;;;;;7.80;4.40;;;;;;;4.07;70.92;100696.97;1687966;83;21525;-72
2023/11/18 10:31:09;;;;;;;6.97;3.70;;;;;;;4.01;70.88;100702.13;1760937;81;21044;-71
2023/11/18 10:33:41;;;;;;;12.10;4.75;;;;;;;3.95;70.67;100702.72;1782496;80;21091;-69
2023/11/18 10:36:23;;;;;;;5.85;3.95;;;;;;;3.89;70.87;100706.84;1782845;80;21098;-73
2023/11/18 10:38:55;;;;;;;8.40;4.30;;;;;;;3.88;71.04;100700.22;1782672;80;21084;-71
2023/11/18 10:41:23;;;;;;;8.18;4.20;;;;;;;3.85;71.39;100711.34;1782508;80;21000;-71
2023/11/18 10:44:13;;;;;;;6.50;4.53;;;;;;;3.88;71.73;100711.91;1782468;80;21435;-70
2023/11/18 10:46:47;;;;;;;7.12;4.37;;;;;;;3.93;71.75;100717.77;1716082;83;21171;-69
2023/11/18 10:49:16;;;;;;;7.70;5.00;;;;;;;3.99;71.85;100720.40;1782207;80;20992;-71
2023/11/18 10:51:47;;;;;;;7.75;4.25;;;;;;;4.01;71.70;100726.03;1715575;83;21103;-72
2023/11/18 10:54:19;;;;;;;7.03;3.95;;;;;;;4.00;71.30;100721.61;1760810;81;21016;-70
2023/11/18 10:56:49;;;;;;;7.15;4.28;;;;;;;4.03;71.24;100723.17;1715556;83;21134;-70
2023/11/18 10:59:18;;;;;;;6.35;3.83;;;;;;;4.04;71.04;100718.09;1761122;81;21036;-71
2023/11/18 11:01:49;;;;;;;6.05;3.90;;;;;;;4.04;70.84;100718.95;1760747;81;21682;-70
2023/11/18 11:04:22;;;;;;;5.85;3.80;;;;;;;3.98;70.14;100706.49;1715697;83;21578;-71
2023/11/18 11:06:56;;;;;;;5.80;3.95;;;;;;;3.88;70.32;100720.04;1782794;80;21027;-71
2023/11/18 11:09:35;;;;;;;5.85;3.83;;;;;;;3.85;70.51;100723.05;1782639;80;21027;-71
2023/11/18 11:12:03;;;;;;;6.65;3.75;;;;;;;3.83;70.55;100719.13;1781190;80;21099;-70
2023/11/18 11:14:36;;;;;;;8.05;4.17;;;;;;;3.79;70.53;100724.48;1782393;80;21063;-71
2023/11/18 11:17:11;;;;;;;8.73;4.22;;;;;;;3.80;70.77;100729.41;1782509;80;21043;-72
2023/11/18 11:20:32;;;;;;;4.50;3.30;;;;;;;3.84;70.90;100725.41;1782513;80;21075;-71
2023/11/18 11:23:28;;;;;;;6.45;3.80;;;;;;;3.86;70.55;100738.81;1780536;80;21066;-70
2023/11/18 11:26:13;;;;;;;6.40;4.08;;;;;;;3.81;70.14;100737.89;1767301;80;21562;-70
2023/11/18 11:28:49;;;;;;;6.65;4.25;;;;;;;3.73;69.80;100745.89;1767453;80;21037;-71
2023/11/18 11:31:40;;;;;;;6.25;3.80;;;;;;;3.69;69.87;100748.04;1736138;81;21085;-70
2023/11/18 11:34:23;;;;;;;7.58;4.58;;;;;;;3.65;69.57;100746.63;1766996;80;21073;-70
2023/11/18 11:36:52;;;;;;;6.83;3.60;;;;;;;3.58;69.65;100748.70;1767234;80;21041;-69
2023/11/18 11:39:29;;;;;;;7.08;3.70;;;;;;;3.56;69.76;100750.20;1767083;81;21554;-71
2023/11/18 11:41:59;;;;;;;6.80;3.08;;;;;;;3.56;69.63;100752.05;1767188;80;21073;-70
2023/11/18 11:44:30;;;;;;;7.83;4.30;;;;;;;3.55;69.88;100747.63;1767160;80;21089;-70